createdAt,value
2022-12-04T05:00:32.311Z,13.30
2022-12-04T05:11:37.156Z,8.60
2022-12-04T05:22:37.020Z,8.10
2022-12-04T05:33:36.904Z,8.20
2022-12-04T05:44:36.797Z,7.50
2022-12-04T05:55:36.661Z,5.50
2022-12-04T06:06:36.538Z,7.20
2022-12-04T06:17:36.450Z,7.00
2022-12-04T06:28:36.362Z,7.90
2022-12-04T06:39:36.182Z,6.60
2022-12-04T06:50:36.061Z,8.40
2022-12-04T07:01:36.054Z,6.10
2022-12-04T07:12:35.801Z,6.70
2022-12-04T07:23:35.720Z,6.40
2022-12-04T07:34:35.558Z,6.80
2022-12-04T07:45:35.490Z,5.60
2022-12-04T07:56:35.322Z,5.80
2022-12-04T08:07:35.225Z,5.90
2022-12-04T08:18:35.071Z,6.50
2022-12-04T08:29:34.971Z,6.10
2022-12-04T08:40:34.852Z,7.20
2022-12-04T08:51:34.704Z,5.90
2022-12-04T09:02:34.598Z,5.20
2022-12-04T09:13:34.464Z,5.40
2022-12-04T09:24:34.447Z,5.10
2022-12-04T09:35:34.219Z,7.40
2022-12-04T09:46:34.231Z,6.30
2022-12-04T09:57:33.972Z,6.50
2022-12-04T10:08:33.849Z,6.80
2022-12-04T10:19:33.738Z,7.30
2022-12-04T10:30:33.606Z,8.30
2022-12-04T10:41:33.499Z,8.00
2022-12-04T10:52:33.390Z,6.10
2022-12-04T11:03:33.309Z,9.30
2022-12-04T11:14:33.124Z,10.20
2022-12-04T11:25:33.140Z,8.50
2022-12-04T11:36:32.878Z,8.80
2022-12-04T11:47:32.756Z,7.90
2022-12-04T11:58:32.649Z,7.70
2022-12-04T12:09:32.532Z,7.90
2022-12-04T12:20:32.390Z,6.60
2022-12-04T12:31:32.363Z,9.50
2022-12-04T12:42:32.152Z,9.30
2022-12-04T12:53:32.028Z,8.70
2022-12-04T13:04:31.928Z,8.40
2022-12-04T13:15:31.792Z,9.00
2022-12-04T13:26:31.660Z,10.50
2022-12-04T13:37:31.540Z,11.60
2022-12-04T13:48:31.419Z,8.90
2022-12-04T13:59:31.304Z,10.20
2022-12-04T14:10:31.176Z,9.80
2022-12-04T14:21:31.058Z,8.40
2022-12-04T14:32:30.947Z,9.10
2022-12-04T14:43:30.841Z,10.30
2022-12-04T14:54:30.687Z,10.00
2022-12-04T15:05:30.561Z,9.30
2022-12-04T15:16:30.507Z,9.40
2022-12-04T15:27:32.820Z,9.80
2022-12-04T15:38:30.196Z,9.40
2022-12-04T15:49:30.078Z,8.10
2022-12-04T16:00:29.951Z,8.80
2022-12-04T16:11:29.828Z,9.50
2022-12-04T16:22:29.707Z,11.20
2022-12-04T16:33:29.597Z,10.30
2022-12-04T16:44:29.470Z,12.00
2022-12-04T16:55:29.369Z,10.90
2022-12-04T17:06:29.236Z,9.60
2022-12-04T17:17:29.104Z,9.30
2022-12-04T17:28:29.006Z,10.00
2022-12-04T17:39:28.862Z,8.20
2022-12-04T17:50:28.734Z,10.20
2022-12-04T18:01:28.703Z,10.70
2022-12-04T18:12:28.499Z,10.20
2022-12-04T18:23:28.379Z,11.10
2022-12-04T18:34:28.269Z,9.80
2022-12-04T18:45:28.211Z,9.50
2022-12-04T18:56:28.011Z,8.30
2022-12-04T19:07:27.928Z,13.00
2022-12-04T19:18:27.787Z,8.60
2022-12-04T19:29:27.639Z,11.60
2022-12-04T19:40:27.512Z,9.20
2022-12-04T19:51:27.409Z,10.70
2022-12-04T20:02:27.311Z,9.80
2022-12-04T20:13:27.156Z,9.60
2022-12-04T20:24:27.031Z,10.20
2022-12-04T20:35:26.902Z,9.70
2022-12-04T20:46:26.918Z,11.60
2022-12-04T20:57:26.676Z,10.50
2022-12-04T21:08:26.584Z,10.70
2022-12-04T21:19:26.416Z,21.80
2022-12-04T21:30:26.297Z,13.90
2022-12-04T21:41:26.197Z,12.40
2022-12-04T21:52:27.052Z,9.20
